Airfield :
LOGIN :

Register | Disclaimer

   EN    FR    IT 

 










Legend :    VFR   Marginal VFR   IFR   Intensive IFR   Very Intensive IFR
Visi :
Ceiling :
>= 8 km
>= 3000ft
5 to 8 km
1000 to 3000 ft
1500m to 5 km
500 to 1000 ft
800 to 1500m
200 to 500 ft
< 800m
< 200 ft
Symbols :   Thunderstorms  Fog  Heavy snow  Heavy precipitations  Wind > 20 kt
SIGMETs :     Misc.  Thunderstorms  Icing  Turbulence  Mountain Waves  Volcanic Ashes






- Airport Elevation : 1568 ft


ETSB - Büchel AB

CURRENT METAR :
  • 281137Z 21008KT 4500 BR SCT004 BKN120 00/M01 Q1017 BLACKGRN FCST CANCEL

EXPIRED METARs :
  • 281020Z 23006KT 1200 R21////// BR BKN001 M01/M02 Q1017 BLACKRED RED BECMG BLU
  • 280920Z 22008KT 0500 FZFG VV000 M02/M02 Q1018 BLACKRED RED BECMG YLO

TAF AMD TAF ETSB
Valid from the 28 at 11:00 until the 28 at 18:00 UTC


281118Z 2811/2818 21010KT 0500 FZFG VV001
BECMG 2811/2812 24012KT 9999 NSW BKN120 BKN220
BECMG 2817/2818 18015KT 9999 NSW BKN040 CANCEL 1120 BY ETGL



MET'MAP, your aeronautical weather chart ! - Copyright ORBIFLY December 2007 - Disclaimer

ORBIFLY MET'MAP TEAM :

Programming & Development : Alexandra Zaïnal
Concept & original design : Baudouin d'Aumeries
Assistance for programming : Marc-Olivier Méhu
Technical & hardware support : Manuel Goepfert

Contact : metmap@orbifly.com




SOURCES & CREDITS :

   NOAA